Time;durP1;ratioP1;P1;durP2;ratioP2;P2;SDS_P1;SDS_P2;PMS_P1;PMS_P2;Temp;Humidity;BMP_temperature;BMP_pressure;BME280_temperature;BME280_humidity;BME280_pressure;Samples;Min_cycle;Max_cycle;Signal;HPM_P1;HPM_P2
2023/11/07 09:18:18;;;;;;;10.95;1.67;;;;;;;20.51;74.61;100765.31;5070573;27;20945;-38
2023/11/07 09:20:44;;;;;;;5.78;1.27;;;;;;;20.56;74.55;100769.09;5077004;28;20032;-38
2023/11/07 09:23:10;;;;;;;7.32;1.75;;;;;;;20.61;74.71;100769.00;5081547;28;20455;-40
2023/11/07 09:25:35;;;;;;;4.43;1.20;;;;;;;20.65;75.06;100770.88;5074211;28;20047;-40
2023/11/07 09:28:01;;;;;;;9.63;1.70;;;;;;;20.70;74.77;100778.25;5071136;28;20021;-39
2023/11/07 09:30:27;;;;;;;3.60;1.10;;;;;;;20.75;74.64;100777.41;5074214;28;20712;-39
2023/11/07 09:32:52;;;;;;;5.25;1.25;;;;;;;20.80;74.25;100777.31;5077095;28;20044;-38
2023/11/07 09:35:17;;;;;;;2.47;1.20;;;;;;;20.83;74.02;100777.56;5074361;28;20066;-38
2023/11/07 09:37:43;;;;;;;4.55;1.70;;;;;;;20.87;73.84;100783.28;5068172;28;20025;-39
2023/11/07 09:40:10;;;;;;;4.43;1.40;;;;;;;20.90;73.93;100771.66;5070284;28;20651;-39
2023/11/07 09:42:37;;;;;;;3.05;1.02;;;;;;;20.94;73.81;100778.22;5077945;28;20047;-39
2023/11/07 09:45:09;;;;;;;3.75;1.10;;;;;;;20.97;73.62;100779.56;5074913;28;20021;-40
2023/11/07 09:47:35;;;;;;;2.45;1.15;;;;;;;20.99;73.56;100775.38;5059484;28;20045;-37
2023/11/07 09:50:07;;;;;;;3.08;1.15;;;;;;;21.03;73.29;100778.38;5074951;28;20097;-38
2023/11/07 09:52:34;;;;;;;1.92;1.00;;;;;;;21.05;73.43;100780.81;5073455;28;20074;-37
2023/11/07 09:55:03;;;;;;;4.63;1.52;;;;;;;21.09;73.31;100784.59;5073452;28;20532;-38
2023/11/07 09:57:29;;;;;;;3.95;1.48;;;;;;;21.09;73.46;100782.69;5074313;28;20455;-37
2023/11/07 09:59:58;;;;;;;2.83;1.20;;;;;;;21.12;73.55;100793.09;5057666;28;20032;-37
2023/11/07 10:02:24;;;;;;;2.05;1.20;;;;;;;21.14;73.17;100796.38;5077795;28;20033;-39
2023/11/07 10:04:50;;;;;;;2.47;1.15;;;;;;;21.16;73.12;100796.06;5079693;28;20024;-37
2023/11/07 10:07:15;;;;;;;3.70;1.30;;;;;;;21.18;73.12;100804.88;5058977;28;20158;-36
2023/11/07 10:09:41;;;;;;;2.63;1.20;;;;;;;21.17;73.39;100801.28;5069692;28;20050;-39
2023/11/07 10:12:16;;;;;;;3.45;1.40;;;;;;;21.20;73.24;100797.13;5072959;28;20103;-40
2023/11/07 10:14:41;;;;;;;2.10;1.10;;;;;;;21.22;72.93;100796.81;5074359;28;20036;-38
2023/11/07 10:17:07;;;;;;;4.88;1.20;;;;;;;21.22;72.76;100805.09;5072583;28;20129;-38
2023/11/07 10:19:33;;;;;;;2.63;1.20;;;;;;;21.23;73.01;100803.97;5080304;28;20488;-38
2023/11/07 10:22:04;;;;;;;2.67;1.10;;;;;;;21.23;72.84;100807.53;5076201;28;20036;-39
2023/11/07 10:24:42;;;;;;;4.40;1.40;;;;;;;21.23;72.98;100809.47;5094820;28;20020;-39
2023/11/07 10:27:08;;;;;;;2.33;1.33;;;;;;;21.25;72.82;100807.22;5072690;28;20029;-39
2023/11/07 10:29:34;;;;;;;2.20;1.10;;;;;;;21.25;72.90;100798.97;5063464;28;20090;-39
2023/11/07 10:32:04;;;;;;;2.53;1.08;;;;;;;21.24;72.53;100803.66;5063769;28;20070;-39
2023/11/07 10:34:33;;;;;;;3.67;1.20;;;;;;;21.24;72.75;100808.34;5061244;28;20103;-39
2023/11/07 10:36:59;;;;;;;2.65;1.38;;;;;;;21.25;72.66;100804.47;5066668;28;20055;-39
2023/11/07 10:39:28;;;;;;;2.58;1.30;;;;;;;21.26;72.98;100806.94;5059896;28;20025;-39
2023/11/07 10:41:58;;;;;;;2.40;1.33;;;;;;;21.26;72.72;100812.47;5060901;28;20035;-40
2023/11/07 10:44:25;;;;;;;4.22;1.35;;;;;;;21.27;72.73;100808.56;5055425;28;20114;-41
2023/11/07 10:46:55;;;;;;;3.67;1.20;;;;;;;21.28;72.73;100812.16;5066310;28;20058;-41
2023/11/07 10:49:21;;;;;;;4.85;1.88;;;;;;;21.27;72.62;100814.06;5061273;28;20039;-41
2023/11/07 10:51:48;;;;;;;3.55;1.38;;;;;;;21.30;73.08;100815.44;5049275;28;20353;-41
2023/11/07 10:54:15;;;;;;;3.58;1.55;;;;;;;21.30;73.02;100810.72;5057670;28;20029;-40
2023/11/07 10:56:43;;;;;;;3.72;1.45;;;;;;;21.33;72.87;100812.88;5060985;28;20562;-43
2023/11/07 10:59:20;;;;;;;2.83;1.30;;;;;;;21.35;72.62;100812.59;5055879;28;20433;-43
2023/11/07 11:01:47;;;;;;;3.95;1.63;;;;;;;21.39;73.17;100812.81;5063194;28;20437;-44
2023/11/07 11:04:14;;;;;;;4.93;1.38;;;;;;;21.40;72.59;100811.69;5062869;28;20027;-40
2023/11/07 11:06:44;;;;;;;2.63;1.40;;;;;;;21.40;72.96;100818.03;5041350;28;20537;-45
2023/11/07 11:09:10;;;;;;;4.00;1.77;;;;;;;21.42;72.90;100812.19;5054695;28;20021;-45
2023/11/07 11:11:41;;;;;;;3.40;1.42;;;;;;;21.44;72.93;100813.53;5058681;28;20048;-44
2023/11/07 11:14:08;;;;;;;5.57;1.25;;;;;;;21.47;72.84;100809.34;5056964;28;20527;-45
2023/11/07 11:16:36;;;;;;;4.10;1.30;;;;;;;21.47;72.88;100807.44;5057249;28;20155;-41
2023/11/07 11:19:14;;;;;;;3.10;1.52;;;;;;;21.50;72.95;100811.50;5060865;28;20029;-42
2023/11/07 11:21:48;;;;;;;2.28;1.25;;;;;;;21.51;73.05;100804.88;5054338;28;20561;-38
2023/11/07 11:24:21;;;;;;;4.20;1.40;;;;;;;21.53;72.73;100802.63;5077694;28;20035;-42
2023/11/07 11:27:03;;;;;;;8.98;1.52;;;;;;;21.55;72.99;100805.91;5042165;28;20017;-41
2023/11/07 11:29:29;;;;;;;4.68;1.40;;;;;;;21.56;73.12;100801.22;5055781;28;20633;-40
2023/11/07 11:31:56;;;;;;;9.73;1.48;;;;;;;21.55;73.06;100811.44;5084459;28;20477;-41
2023/11/07 11:34:29;;;;;;;6.47;1.65;;;;;;;21.54;72.83;100809.78;5050196;28;20032;-41
2023/11/07 11:36:59;;;;;;;6.32;1.77;;;;;;;21.52;72.79;100809.28;5060782;28;20243;-40
2023/11/07 11:39:31;;;;;;;3.28;1.20;;;;;;;21.51;72.83;100813.16;5051896;28;20536;-40
2023/11/07 11:41:58;;;;;;;9.02;1.50;;;;;;;21.49;73.13;100807.13;5062112;28;20029;-41
2023/11/07 11:44:27;;;;;;;5.93;1.30;;;;;;;21.47;72.95;100803.84;5060686;28;20016;-41
2023/11/07 11:46:55;;;;;;;6.30;1.70;;;;;;;21.45;73.28;100797.81;5058634;28;20352;-41
2023/11/07 11:49:21;;;;;;;3.97;1.70;;;;;;;21.44;73.04;100801.69;5056826;28;20404;-41
2023/11/07 11:51:48;;;;;;;4.65;1.55;;;;;;;21.42;73.27;100798.41;5059191;28;20492;-41
2023/11/07 11:54:34;;;;;;;6.43;1.70;;;;;;;21.41;73.60;100794.84;5047110;28;20821;-41
2023/11/07 11:57:00;;;;;;;12.38;2.28;;;;;;;21.42;73.62;100799.25;5044830;28;20575;-41
2023/11/07 11:59:53;;;;;;;9.05;1.60;;;;;;;21.42;73.76;100802.00;5046875;28;20568;-41
2023/11/07 12:02:51;;;;;;;6.18;1.60;;;;;;;21.42;73.57;100802.00;5053763;28;20119;-42
2023/11/07 12:05:17;;;;;;;10.18;2.05;;;;;;;21.45;73.83;100797.81;5044689;28;20036;-41
2023/11/07 12:07:47;;;;;;;7.70;1.70;;;;;;;21.45;74.19;100804.16;5057967;28;20376;-41
2023/11/07 12:10:17;;;;;;;4.93;1.77;;;;;;;21.46;73.62;100796.72;5053511;28;20024;-41
2023/11/07 12:12:43;;;;;;;7.28;1.80;;;;;;;21.45;74.06;100801.38;5054869;28;20534;-41
2023/11/07 12:15:08;;;;;;;5.53;1.55;;;;;;;21.47;73.89;100812.09;5059243;28;20063;-41
2023/11/07 12:17:45;;;;;;;3.85;1.48;;;;;;;21.48;74.00;100816.50;5061053;28;20080;-41
2023/11/07 12:20:14;;;;;;;4.97;1.60;;;;;;;21.47;73.89;100804.66;5055803;28;20025;-41
2023/11/07 12:22:46;;;;;;;4.10;1.60;;;;;;;21.47;73.72;100812.94;5049367;28;20087;-45
2023/11/07 12:25:17;;;;;;;6.13;1.60;;;;;;;21.47;73.44;100812.94;5048448;28;20017;-45
2023/11/07 12:27:51;;;;;;;5.55;1.70;;;;;;;21.47;73.55;100806.59;5057367;28;20025;-45
2023/11/07 12:30:17;;;;;;;6.00;1.58;;;;;;;21.47;73.80;100803.84;5056717;28;20086;-45
2023/11/07 12:32:45;;;;;;;4.65;1.50;;;;;;;21.46;73.65;100803.03;5056971;28;20431;-43
2023/11/07 12:35:21;;;;;;;4.85;1.50;;;;;;;21.48;73.91;100797.19;5057914;28;20097;-44
2023/11/07 12:37:47;;;;;;;5.28;1.80;;;;;;;21.47;73.49;100801.06;5063027;28;20078;-44
2023/11/07 12:40:15;;;;;;;5.70;1.58;;;;;;;21.45;72.92;100809.66;5058648;28;20031;-43
2023/11/07 12:42:43;;;;;;;3.50;1.70;;;;;;;21.44;73.10;100812.72;5039574;28;20055;-44
2023/11/07 12:45:08;;;;;;;4.47;1.50;;;;;;;21.43;73.06;100808.31;5055987;28;20063;-46
2023/11/07 12:47:35;;;;;;;6.82;1.95;;;;;;;21.40;72.96;100822.72;5058847;28;20036;-45
2023/11/07 12:50:00;;;;;;;6.00;2.03;;;;;;;21.38;72.95;100831.28;5054995;28;20413;-45
2023/11/07 12:52:25;;;;;;;4.80;1.58;;;;;;;21.36;72.99;100838.22;5060091;28;20166;-44
2023/11/07 12:54:51;;;;;;;3.85;1.50;;;;;;;21.31;72.37;100817.88;5047149;28;20089;-44
2023/11/07 12:57:16;;;;;;;129.75;8.68;;;;;;;21.29;73.58;100822.06;5047451;28;20508;-45
2023/11/07 12:59:58;;;;;;;21.20;2.50;;;;;;;21.27;73.26;100802.25;5058825;28;20158;-43
2023/11/07 13:02:25;;;;;;;186.15;10.57;;;;;;;21.27;73.76;100810.50;5054980;28;20028;-56
2023/11/07 13:04:51;;;;;;;34.15;3.00;;;;;;;21.26;74.51;100806.94;5051836;28;20048;-39
2023/11/07 13:07:16;;;;;;;13.60;2.35;;;;;;;21.37;74.33;100807.56;5048506;28;20059;-37
2023/11/07 13:09:41;;;;;;;15.38;2.15;;;;;;;21.49;73.87;100807.13;5046438;28;20594;-37
2023/11/07 13:12:10;;;;;;;26.75;2.72;;;;;;;21.61;73.92;100812.19;5052978;28;20517;-38
2023/11/07 13:14:39;;;;;;;9.32;1.98;;;;;;;21.71;73.43;100805.69;5048287;28;20026;-38
2023/11/07 13:17:05;;;;;;;7.03;1.65;;;;;;;21.83;73.30;100807.94;5055271;28;20382;-38
2023/11/07 13:19:31;;;;;;;10.50;2.45;;;;;;;21.92;72.88;100808.88;5055293;28;20469;-37
2023/11/07 13:21:56;;;;;;;5.47;1.75;;;;;;;22.02;72.77;100819.72;5057476;28;20064;-37
2023/11/07 13:24:24;;;;;;;11.07;1.95;;;;;;;22.12;72.32;100827.00;5058702;28;20175;-38
2023/11/07 13:26:51;;;;;;;8.38;1.70;;;;;;;22.21;72.34;100824.34;5060586;28;20017;-38
2023/11/07 13:29:17;;;;;;;4.95;1.70;;;;;;;22.30;71.94;100827.22;5057131;28;20036;-38
2023/11/07 13:31:42;;;;;;;4.28;1.77;;;;;;;22.37;71.49;100827.63;5056171;28;20025;-37
2023/11/07 13:34:07;;;;;;;7.50;1.98;;;;;;;22.42;71.03;100819.28;5059734;28;20480;-37
2023/11/07 13:36:34;;;;;;;9.27;1.80;;;;;;;22.49;71.01;100810.56;5055896;28;20495;-37
2023/11/07 13:38:59;;;;;;;8.70;2.20;;;;;;;22.54;70.40;100816.81;5048904;28;20348;-37
2023/11/07 13:41:24;;;;;;;10.30;2.10;;;;;;;22.59;70.23;100816.69;5058705;28;20027;-37
2023/11/07 13:43:50;;;;;;;7.05;2.20;;;;;;;22.64;69.82;100814.97;5060803;28;20066;-38
2023/11/07 13:46:17;;;;;;;6.40;2.05;;;;;;;22.70;69.65;100819.25;5053474;28;20041;-37
2023/11/07 13:48:43;;;;;;;10.73;2.20;;;;;;;22.75;69.65;100819.13;5049433;28;20056;-37
2023/11/07 13:51:09;;;;;;;14.13;3.90;;;;;;;22.78;69.44;100821.25;5064616;28;20484;-37
2023/11/07 13:53:36;;;;;;;11.85;2.50;;;;;;;22.79;69.13;100825.66;5065658;28;20036;-38
2023/11/07 13:56:03;;;;;;;12.35;2.85;;;;;;;22.83;69.48;100820.34;5053564;28;20031;-38
2023/11/07 13:58:28;;;;;;;12.25;3.33;;;;;;;22.84;69.27;100820.03;5057906;28;20021;-39
2023/11/07 14:00:56;;;;;;;10.00;2.95;;;;;;;22.86;68.85;100823.31;5050458;28;20195;-40
2023/11/07 14:03:22;;;;;;;12.75;2.55;;;;;;;22.89;68.50;100817.16;5053031;28;20028;-37
2023/11/07 14:05:47;;;;;;;8.63;2.65;;;;;;;22.90;68.35;100818.78;5057783;28;20053;-38
2023/11/07 14:08:15;;;;;;;9.20;2.80;;;;;;;22.93;68.41;100822.88;5062110;28;20107;-37
2023/11/07 14:10:41;;;;;;;8.55;2.63;;;;;;;22.90;67.71;100816.00;5058685;28;20086;-38
2023/11/07 14:13:06;;;;;;;7.22;2.50;;;;;;;22.90;67.92;100821.53;5054875;28;20663;-37
2023/11/07 14:15:32;;;;;;;10.35;2.35;;;;;;;22.89;67.64;100824.63;5049451;28;20067;-37
2023/11/07 14:18:05;;;;;;;7.30;2.25;;;;;;;22.86;67.54;100826.06;5058130;28;20067;-37
2023/11/07 14:20:31;;;;;;;6.57;2.17;;;;;;;22.85;67.88;100832.72;5050676;28;20024;-38
2023/11/07 14:22:57;;;;;;;7.50;2.22;;;;;;;22.85;68.26;100824.41;5059741;28;20078;-35
2023/11/07 14:25:31;;;;;;;8.10;2.45;;;;;;;22.83;68.46;100829.47;5056252;28;20530;-36
2023/11/07 14:27:59;;;;;;;6.63;2.08;;;;;;;22.81;67.80;100834.47;5056440;28;20082;-37
2023/11/07 14:30:25;;;;;;;6.32;1.98;;;;;;;22.79;68.28;100835.91;5055184;28;20386;-37
2023/11/07 14:32:51;;;;;;;5.57;2.20;;;;;;;22.75;68.30;100831.00;5059116;28;20026;-36
2023/11/07 14:35:19;;;;;;;6.70;2.20;;;;;;;22.75;68.66;100846.75;5056934;28;20032;-40
2023/11/07 14:37:44;;;;;;;6.05;2.13;;;;;;;22.73;68.27;100841.56;5056798;28;20805;-37
2023/11/07 14:40:13;;;;;;;5.80;1.77;;;;;;;22.72;68.22;100839.91;5060392;28;20052;-37
2023/11/07 14:42:40;;;;;;;5.88;2.08;;;;;;;22.71;68.58;100840.19;5053578;28;20552;-38
2023/11/07 14:45:09;;;;;;;4.90;1.90;;;;;;;22.70;68.07;100841.34;5044667;28;20029;-38
2023/11/07 14:47:44;;;;;;;5.18;1.75;;;;;;;22.65;68.39;100831.22;5058687;28;20046;-39
2023/11/07 14:50:12;;;;;;;4.55;2.17;;;;;;;22.64;68.37;100837.06;5059096;28;20086;-38
2023/11/07 14:52:39;;;;;;;4.38;2.00;;;;;;;22.63;68.17;100825.19;5059756;28;20028;-38
2023/11/07 14:55:16;;;;;;;7.28;1.98;;;;;;;22.61;68.48;100838.47;5062343;28;20078;-39
2023/11/07 14:57:42;;;;;;;6.07;2.40;;;;;;;22.62;68.77;100839.31;5051433;28;20028;-39
2023/11/07 15:00:24;;;;;;;6.05;2.00;;;;;;;22.59;68.72;100829.69;5054428;28;20393;-39
2023/11/07 15:02:50;;;;;;;8.55;1.80;;;;;;;22.58;68.82;100828.84;5053747;28;20059;-41
2023/11/07 15:05:18;;;;;;;10.55;2.40;;;;;;;22.58;69.01;100834.38;5057797;28;20028;-42
2023/11/07 15:07:43;;;;;;;9.50;1.77;;;;;;;22.57;68.64;100823.66;5063579;28;20649;-39
2023/11/07 15:10:10;;;;;;;7.70;2.13;;;;;;;22.58;68.82;100837.16;5057792;28;20147;-40
2023/11/07 15:12:36;;;;;;;15.60;2.30;;;;;;;22.60;68.73;100834.09;5049221;28;20055;-37
2023/11/07 15:15:02;;;;;;;61.00;3.30;;;;;;;22.59;68.52;100838.78;5058649;28;20483;-37
2023/11/07 15:17:29;;;;;;;183.02;6.90;;;;;;;22.60;68.68;100840.44;5058047;28;20178;-38
2023/11/07 15:19:54;;;;;;;30.95;2.80;;;;;;;22.60;68.79;100828.56;5050959;28;20021;-38
2023/11/07 15:22:20;;;;;;;63.90;5.30;;;;;;;22.59;68.25;100843.50;5066321;28;20446;-37
2023/11/07 15:24:46;;;;;;;25.20;2.60;;;;;;;22.58;68.54;100845.44;5060966;28;20028;-39
2023/11/07 15:27:12;;;;;;;25.23;2.90;;;;;;;22.58;68.29;100845.44;5056614;28;20024;-39
2023/11/07 15:29:38;;;;;;;19.88;2.38;;;;;;;22.58;68.44;100845.44;5060339;28;20514;-37
2023/11/07 15:32:04;;;;;;;15.93;2.85;;;;;;;22.59;68.40;100854.56;5059549;28;20483;-37
2023/11/07 15:34:29;;;;;;;19.30;2.97;;;;;;;22.59;68.05;100836.03;5050474;28;20048;-39
2023/11/07 15:36:55;;;;;;;378.15;17.83;;;;;;;22.63;68.20;100843.72;5053221;28;20328;-38
2023/11/07 15:39:21;;;;;;;16.20;2.22;;;;;;;22.62;68.07;100839.31;5059590;28;20159;-38
2023/11/07 15:41:46;;;;;;;17.77;2.22;;;;;;;22.57;67.78;100846.59;5059689;28;20032;-38
2023/11/07 15:44:12;;;;;;;13.15;1.98;;;;;;;22.52;67.67;100843.09;5063079;28;20350;-38
2023/11/07 15:46:43;;;;;;;10.95;1.90;;;;;;;22.47;67.89;100834.91;5062182;28;20035;-37
2023/11/07 15:49:09;;;;;;;8.05;2.00;;;;;;;22.42;68.11;100835.84;5051076;28;20036;-38
2023/11/07 15:51:35;;;;;;;10.00;1.85;;;;;;;22.36;68.28;100834.28;5048432;28;20078;-37
2023/11/07 15:54:01;;;;;;;12.20;2.10;;;;;;;22.32;68.16;100828.56;5059165;28;20029;-38
2023/11/07 15:56:26;;;;;;;12.18;2.13;;;;;;;22.30;68.44;100832.75;5055490;28;20044;-39
2023/11/07 15:58:52;;;;;;;11.75;1.80;;;;;;;22.27;68.36;100831.41;5047530;28;20028;-39
2023/11/07 16:01:25;;;;;;;5.57;1.60;;;;;;;22.24;68.23;100834.78;5047556;28;20058;-40
2023/11/07 16:03:52;;;;;;;5.88;2.00;;;;;;;22.22;68.39;100828.72;5054547;28;20040;-40
2023/11/07 16:06:18;;;;;;;6.80;2.00;;;;;;;22.20;68.30;100825.47;5054044;28;20519;-40
2023/11/07 16:08:43;;;;;;;12.23;2.00;;;;;;;22.18;68.16;100817.50;5056725;28;20056;-40
2023/11/07 16:11:08;;;;;;;7.40;2.00;;;;;;;22.15;68.25;100825.59;5057564;28;20488;-41
